createdAt,value
2023-02-08T00:01:18.307Z,99735.41
2023-02-08T00:03:47.352Z,99729.00
2023-02-08T00:06:16.167Z,99738.25
2023-02-08T00:08:44.790Z,99732.25
2023-02-08T00:11:13.687Z,99710.59
2023-02-08T00:13:43.019Z,99733.16
2023-02-08T00:16:14.715Z,99729.69
2023-02-08T00:18:43.119Z,99732.34
2023-02-08T00:21:12.228Z,99737.28
2023-02-08T00:23:40.825Z,99732.16
2023-02-08T00:26:09.395Z,99733.06
2023-02-08T00:28:38.014Z,99682.88
2023-02-08T00:31:06.946Z,99741.59
2023-02-08T00:33:36.590Z,99738.66
2023-02-08T00:36:08.832Z,99737.06
2023-02-08T00:38:37.424Z,99728.03
2023-02-08T00:41:06.255Z,99725.84
2023-02-08T00:43:34.620Z,99739.34
2023-02-08T00:46:02.886Z,99739.03
2023-02-08T00:48:31.761Z,99743.03
2023-02-08T00:51:03.615Z,99752.19
2023-02-08T00:53:32.387Z,99746.97
2023-02-08T00:56:00.470Z,99751.41
2023-02-08T00:58:28.583Z,99752.97
2023-02-08T01:00:56.775Z,99750.53
2023-02-08T01:03:25.665Z,99751.97
2023-02-08T01:05:54.029Z,99742.44
2023-02-08T01:08:23.545Z,99718.22
2023-02-08T01:10:51.667Z,99746.16
2023-02-08T01:13:20.004Z,99742.13
2023-02-08T01:15:48.145Z,99738.28
2023-02-08T01:18:16.830Z,99638.81
2023-02-08T01:20:44.931Z,99728.06
2023-02-08T01:23:13.047Z,99733.16
2023-02-08T01:25:42.661Z,99729.72
2023-02-08T01:28:10.766Z,99741.31
2023-02-08T01:30:39.457Z,99740.31
2023-02-08T01:33:07.838Z,99737.69
2023-02-08T01:35:35.955Z,99730.28
2023-02-08T01:38:04.063Z,99706.09
2023-02-08T01:40:32.267Z,99656.41
2023-02-08T01:43:01.733Z,99597.50
2023-02-08T01:45:31.997Z,99723.72
2023-02-08T01:48:09.431Z,99721.50
2023-02-08T01:50:46.388Z,99716.94
2023-02-08T01:53:15.096Z,99720.25
2023-02-08T01:55:48.935Z,99717.94
2023-02-08T01:58:20.682Z,99717.66
2023-02-08T02:00:49.960Z,99696.94
2023-02-08T02:03:20.210Z,99664.31
2023-02-08T02:05:53.283Z,99718.16
2023-02-08T02:08:21.683Z,99690.38
2023-02-08T02:10:50.881Z,99725.25
2023-02-08T02:13:22.599Z,99619.97
2023-02-08T02:15:51.503Z,99717.28
2023-02-08T02:18:24.767Z,99699.03
2023-02-08T02:21:21.044Z,99890.28
2023-02-08T02:24:30.219Z,99721.06
2023-02-08T02:27:16.058Z,99720.72
2023-02-08T02:30:25.082Z,99725.59
2023-02-08T02:33:08.853Z,99728.22
2023-02-08T02:35:45.603Z,99734.69
2023-02-08T02:38:19.665Z,99730.84
2023-02-08T02:40:55.624Z,99681.75
2023-02-08T02:43:46.251Z,99734.66
2023-02-08T02:46:28.933Z,99735.88
2023-02-08T02:49:05.686Z,99609.50
2023-02-08T02:51:41.556Z,99682.13
2023-02-08T02:54:15.733Z,99745.41
2023-02-08T02:56:47.294Z,99579.59
2023-02-08T02:59:16.929Z,99740.63
2023-02-08T03:01:46.484Z,99722.56
2023-02-08T03:04:18.112Z,99743.41
2023-02-08T03:07:01.539Z,99741.31
2023-02-08T03:09:54.077Z,99742.00
2023-02-08T03:12:35.598Z,99754.78
2023-02-08T03:15:11.211Z,99730.94
2023-02-08T03:17:55.588Z,99763.31
2023-02-08T03:20:30.561Z,99769.84
2023-02-08T03:23:03.926Z,99759.66
2023-02-08T03:25:38.925Z,99770.34
2023-02-08T03:28:15.591Z,99773.00
2023-02-08T03:30:51.387Z,99777.31
2023-02-08T03:33:26.971Z,99779.88
2023-02-08T03:36:01.793Z,99780.56
2023-02-08T03:38:35.090Z,99783.09
2023-02-08T03:41:07.648Z,99790.31
2023-02-08T03:43:39.934Z,99785.09
2023-02-08T03:46:17.620Z,99787.88
2023-02-08T03:48:51.089Z,99783.22
2023-02-08T03:51:23.302Z,99778.38
2023-02-08T03:53:54.801Z,99781.88
2023-02-08T03:56:32.766Z,99722.47
2023-02-08T03:59:05.075Z,99743.91
2023-02-08T04:01:37.575Z,99742.91
2023-02-08T04:04:06.149Z,99766.03
2023-02-08T04:06:36.004Z,99769.56
2023-02-08T04:09:04.122Z,99779.09
2023-02-08T04:11:32.547Z,99780.81
2023-02-08T04:14:00.747Z,99776.59
2023-02-08T04:16:28.822Z,99726.50
2023-02-08T04:18:56.945Z,99778.94
2023-02-08T04:21:25.103Z,99633.81
2023-02-08T04:23:54.622Z,99763.00
2023-02-08T04:26:22.768Z,99732.03
2023-02-08T04:28:50.906Z,99786.59
2023-02-08T04:31:19.179Z,99789.03
2023-02-08T04:33:47.311Z,99776.81
2023-02-08T04:36:15.458Z,99808.13
2023-02-08T04:38:43.565Z,99798.03
2023-02-08T04:41:13.210Z,99811.34
2023-02-08T04:43:41.285Z,99802.00
2023-02-08T04:46:09.502Z,99800.13
2023-02-08T04:48:37.663Z,99792.16
2023-02-08T04:51:05.913Z,99793.25
2023-02-08T04:53:34.929Z,99798.00
2023-02-08T04:56:03.070Z,99800.13
2023-02-08T04:58:32.584Z,99797.03
2023-02-08T05:01:00.807Z,99794.94
2023-02-08T05:03:28.925Z,99789.69
2023-02-08T05:06:00.861Z,99790.91
2023-02-08T05:08:29.355Z,99796.56
2023-02-08T05:10:57.509Z,99799.69
2023-02-08T05:13:25.810Z,99767.84
2023-02-08T05:15:55.410Z,99590.88
2023-02-08T05:18:23.562Z,99783.16
2023-02-08T05:20:58.260Z,99799.75
2023-02-08T05:23:26.507Z,99788.09
2023-02-08T05:25:54.655Z,99798.19
2023-02-08T05:28:22.980Z,99639.91
2023-02-08T05:30:51.320Z,99773.41
2023-02-08T05:33:20.877Z,99763.81
2023-02-08T05:35:49.062Z,99791.88
2023-02-08T05:38:17.197Z,99780.31
2023-02-08T05:40:45.227Z,99766.91
2023-02-08T05:43:13.340Z,99722.34
2023-02-08T05:45:41.456Z,99737.81
2023-02-08T05:48:09.622Z,99793.13
2023-02-08T05:50:39.608Z,99792.41
2023-02-08T05:53:07.922Z,99769.59
2023-02-08T05:55:36.213Z,99806.91
2023-02-08T05:58:04.378Z,99698.09
2023-02-08T06:00:32.489Z,99826.59
2023-02-08T06:03:00.659Z,99827.88
2023-02-08T06:05:28.863Z,99830.63
2023-02-08T06:07:58.439Z,99809.00
2023-02-08T06:10:26.645Z,99841.88
2023-02-08T06:12:54.765Z,99838.28
2023-02-08T06:15:22.994Z,99846.94
2023-02-08T06:17:51.720Z,99837.53
2023-02-08T06:20:20.063Z,99584.94
2023-02-08T06:22:48.386Z,99864.00
2023-02-08T06:25:18.234Z,99849.72
2023-02-08T06:27:46.463Z,99886.47
2023-02-08T06:30:15.021Z,99887.56
2023-02-08T06:32:43.236Z,99892.16
2023-02-08T06:35:12.016Z,99895.59
2023-02-08T06:37:40.461Z,99698.94
2023-02-08T06:40:09.549Z,99853.41
2023-02-08T06:42:39.187Z,99896.47
2023-02-08T06:45:11.020Z,99898.66
2023-02-08T06:47:40.289Z,99903.00
2023-02-08T06:50:08.863Z,99902.00
2023-02-08T06:52:37.544Z,99911.00
2023-02-08T06:55:06.416Z,99917.44
2023-02-08T06:57:34.677Z,99913.66
2023-02-08T07:00:04.949Z,99903.63
2023-02-08T07:02:33.868Z,99874.56
2023-02-08T07:05:02.073Z,99901.34
2023-02-08T07:07:30.263Z,99905.38
2023-02-08T07:09:58.738Z,99905.47
2023-02-08T07:12:26.945Z,99902.25
2023-02-08T07:14:55.223Z,99904.44
2023-02-08T07:17:24.859Z,99741.69
2023-02-08T07:19:53.186Z,99906.34
2023-02-08T07:22:21.612Z,99910.38
2023-02-08T07:24:49.793Z,99907.44
2023-02-08T07:27:17.903Z,99894.53
2023-02-08T07:29:46.083Z,99893.19
2023-02-08T07:32:14.352Z,99900.16
2023-02-08T07:34:44.082Z,99883.59
2023-02-08T07:37:12.415Z,99907.88
2023-02-08T07:39:40.567Z,99911.94
2023-02-08T07:42:09.823Z,99910.25
2023-02-08T07:44:39.038Z,99832.00
2023-02-08T07:47:07.955Z,99880.78
2023-02-08T07:49:36.402Z,99909.75
2023-02-08T07:52:06.138Z,99907.56
2023-02-08T07:54:34.454Z,99902.41
2023-02-08T07:57:03.812Z,99905.25
2023-02-08T07:59:32.091Z,99911.22
2023-02-08T08:02:00.373Z,99908.69
2023-02-08T08:04:28.730Z,99921.53
2023-02-08T08:06:56.951Z,99936.16
2023-02-08T08:09:26.798Z,99942.84
2023-02-08T08:11:55.080Z,99933.59
2023-02-08T08:14:23.407Z,99932.44
2023-02-08T08:16:51.831Z,99926.97
2023-02-08T08:19:20.049Z,99845.41
2023-02-08T08:21:48.309Z,99836.00
2023-02-08T08:24:16.490Z,99912.88
2023-02-08T08:26:46.152Z,99926.72
2023-02-08T08:29:15.101Z,99921.84
2023-02-08T08:31:44.958Z,99924.09
2023-02-08T08:34:13.150Z,99938.34
2023-02-08T08:36:41.514Z,99944.75
2023-02-08T08:39:09.780Z,99940.47
2023-02-08T08:41:38.208Z,99926.00
2023-02-08T08:44:07.950Z,99948.53
2023-02-08T08:46:36.172Z,99944.19
2023-02-08T08:49:04.381Z,99947.19
2023-02-08T08:51:35.419Z,99900.69
2023-02-08T08:54:03.830Z,99977.16
2023-02-08T08:56:32.068Z,99932.09
2023-02-08T08:59:00.388Z,99950.00
2023-02-08T09:01:30.649Z,99972.56
2023-02-08T09:04:00.058Z,99966.88
2023-02-08T09:06:28.445Z,99955.16
2023-02-08T09:08:56.676Z,99946.13
2023-02-08T09:11:24.998Z,99847.81
2023-02-08T09:13:55.898Z,99946.50
2023-02-08T09:16:25.369Z,99945.94
2023-02-08T09:18:55.159Z,99959.25
2023-02-08T09:21:25.596Z,99925.56
2023-02-08T09:23:53.768Z,99881.81
2023-02-08T09:26:22.530Z,99918.50
2023-02-08T09:28:50.676Z,99948.88
2023-02-08T09:31:21.665Z,99945.63
2023-02-08T09:33:50.637Z,99902.00
2023-02-08T09:36:21.116Z,99956.25
2023-02-08T09:38:51.790Z,99932.66
2023-02-08T09:41:33.996Z,99961.97
2023-02-08T09:44:16.577Z,99966.06
2023-02-08T09:46:51.892Z,99922.72
2023-02-08T09:49:25.371Z,99971.03
2023-02-08T09:52:00.301Z,99974.44
2023-02-08T09:54:33.721Z,99979.78
2023-02-08T09:57:07.179Z,99907.28
2023-02-08T09:59:36.790Z,99974.19
2023-02-08T10:02:19.460Z,99868.03
2023-02-08T10:04:58.664Z,99965.38
2023-02-08T10:07:29.068Z,99971.91
2023-02-08T10:10:00.939Z,99952.03
2023-02-08T10:12:43.175Z,99975.84
2023-02-08T10:15:23.005Z,99975.22
2023-02-08T10:18:10.098Z,99827.84
2023-02-08T10:20:51.780Z,99943.44
2023-02-08T10:23:38.660Z,99901.78
2023-02-08T10:26:14.984Z,99967.50
2023-02-08T10:28:59.136Z,99913.44
2023-02-08T10:31:39.852Z,99962.31
2023-02-08T10:34:18.907Z,99959.59
2023-02-08T10:36:47.677Z,99955.31
2023-02-08T10:39:19.713Z,99952.44
2023-02-08T10:41:48.748Z,99945.34
2023-02-08T10:44:28.189Z,99949.44
2023-02-08T10:47:10.246Z,99953.53
2023-02-08T10:49:44.225Z,99960.47
2023-02-08T10:52:12.570Z,99955.47
2023-02-08T10:54:42.227Z,99917.72
2023-02-08T10:57:16.245Z,99959.31
2023-02-08T10:59:50.934Z,99955.78
2023-02-08T11:02:23.983Z,99943.53
2023-02-08T11:05:04.304Z,99933.94
2023-02-08T11:07:35.303Z,99920.00
2023-02-08T11:10:25.199Z,99936.38
2023-02-08T11:12:58.742Z,99934.75
2023-02-08T11:15:30.780Z,99933.78
2023-02-08T11:18:02.106Z,99904.69
2023-02-08T11:20:36.808Z,99925.03
2023-02-08T11:23:06.304Z,99928.97
2023-02-08T11:25:39.262Z,99908.56
2023-02-08T11:28:24.580Z,99933.56
2023-02-08T11:30:58.087Z,99921.69
2023-02-08T11:33:27.573Z,99893.31
2023-02-08T11:36:03.155Z,99921.41
2023-02-08T11:38:32.694Z,99884.09
2023-02-08T11:41:05.038Z,99914.25
2023-02-08T11:43:36.014Z,99905.50
2023-02-08T11:46:06.239Z,99907.56
2023-02-08T11:48:42.167Z,99891.09
2023-02-08T11:51:13.644Z,99915.72
2023-02-08T11:53:47.220Z,99904.97
2023-02-08T11:56:22.505Z,99905.94
2023-02-08T11:58:59.956Z,99915.78
2023-02-08T12:01:30.370Z,99916.25
2023-02-08T12:04:01.243Z,99903.84
2023-02-08T12:06:49.929Z,99903.50
2023-02-08T12:09:29.321Z,99907.19
2023-02-08T12:12:07.568Z,99895.59
2023-02-08T12:14:49.259Z,99898.50
2023-02-08T12:17:42.637Z,99871.56
2023-02-08T12:20:37.643Z,99890.28
2023-02-08T12:23:36.265Z,99801.72
2023-02-08T12:26:12.403Z,99876.41
2023-02-08T12:28:54.480Z,99882.19
2023-02-08T12:31:38.584Z,99875.03
2023-02-08T12:34:15.038Z,99876.97
2023-02-08T12:37:18.627Z,99881.38
2023-02-08T12:40:10.674Z,99859.63
2023-02-08T12:42:53.354Z,99887.50
2023-02-08T12:45:55.754Z,99874.88
2023-02-08T12:48:45.624Z,99865.97
2023-02-08T12:51:25.008Z,99858.22
2023-02-08T12:53:57.626Z,99846.41
2023-02-08T12:56:31.866Z,99713.81
2023-02-08T12:59:13.031Z,99855.09
2023-02-08T13:01:46.569Z,99848.75
2023-02-08T13:04:30.436Z,99835.28
2023-02-08T13:07:02.068Z,99809.19
2023-02-08T13:09:44.620Z,99777.19
2023-02-08T13:12:17.303Z,99851.66
2023-02-08T13:14:48.547Z,99826.63
2023-02-08T13:17:23.621Z,99842.03
2023-02-08T13:20:00.969Z,99800.88
2023-02-08T13:22:33.529Z,99762.00
2023-02-08T13:25:08.480Z,99837.03
2023-02-08T13:27:37.191Z,99813.22
2023-02-08T13:30:07.577Z,99831.91
2023-02-08T13:32:44.318Z,99827.97
2023-02-08T13:35:18.309Z,99830.56
2023-02-08T13:37:52.669Z,99816.94
2023-02-08T13:40:28.276Z,99821.72
2023-02-08T13:43:01.499Z,99819.34
2023-02-08T13:45:33.082Z,99830.13
2023-02-08T13:48:04.699Z,99840.59
2023-02-08T13:50:49.001Z,99828.47
2023-02-08T13:53:18.911Z,99833.81
2023-02-08T13:55:56.340Z,99825.03
2023-02-08T13:58:59.252Z,99778.44
2023-02-08T14:01:29.038Z,99820.97
2023-02-08T14:04:34.538Z,99808.72
2023-02-08T14:07:15.436Z,99818.31
2023-02-08T14:09:50.306Z,99807.66
2023-02-08T14:12:25.684Z,99803.31
2023-02-08T14:15:25.920Z,99803.63
2023-02-08T14:17:58.329Z,99801.69
2023-02-08T14:20:39.486Z,99802.47
2023-02-08T14:23:21.814Z,99799.38
2023-02-08T14:25:52.323Z,99702.81
2023-02-08T14:28:27.936Z,99677.47
2023-02-08T14:30:59.150Z,99812.81
2023-02-08T14:33:29.785Z,99804.19
2023-02-08T14:36:02.083Z,99801.28
2023-02-08T14:38:55.585Z,99806.91
2023-02-08T14:41:47.066Z,99799.94
2023-02-08T14:44:54.412Z,99806.09
2023-02-08T14:47:58.771Z,99802.72
2023-02-08T14:50:31.257Z,99873.13
2023-02-08T14:53:07.921Z,99805.34
2023-02-08T14:55:44.790Z,99801.75
2023-02-08T14:58:17.300Z,99801.25
2023-02-08T15:00:47.041Z,99776.38
2023-02-08T15:03:19.778Z,99742.34
2023-02-08T15:06:04.073Z,99789.03
2023-02-08T15:08:34.529Z,99727.69
2023-02-08T15:11:02.897Z,99782.50
2023-02-08T15:13:31.630Z,99803.81
2023-02-08T15:16:01.660Z,99802.66
2023-02-08T15:18:33.347Z,99760.53
2023-02-08T15:21:04.933Z,99799.03
2023-02-08T15:23:34.804Z,99810.50
2023-02-08T15:26:05.311Z,99780.41
2023-02-08T15:28:36.429Z,99807.75
2023-02-08T15:31:09.381Z,99815.84
2023-02-08T15:33:40.757Z,99810.59
2023-02-08T15:36:15.941Z,99816.56
2023-02-08T15:38:46.335Z,99797.47
2023-02-08T15:41:16.655Z,99805.78
2023-02-08T15:43:44.929Z,99822.16
2023-02-08T15:46:21.605Z,99786.72
2023-02-08T15:48:51.450Z,99825.81
2023-02-08T15:51:23.209Z,99829.16
2023-02-08T15:53:55.131Z,99845.84
2023-02-08T15:56:36.495Z,99785.94
2023-02-08T15:59:09.088Z,99835.81
2023-02-08T16:01:37.294Z,99840.53
2023-02-08T16:04:12.403Z,99842.22
2023-02-08T16:06:46.568Z,99819.13
2023-02-08T16:09:20.160Z,99838.16
2023-02-08T16:11:50.428Z,99842.00
2023-02-08T16:14:24.821Z,99768.25
2023-02-08T16:16:57.887Z,99845.66
2023-02-08T16:19:29.666Z,99845.44
2023-02-08T16:22:16.326Z,99799.91
2023-02-08T16:24:47.764Z,99688.19
2023-02-08T16:27:25.764Z,99704.44
2023-02-08T16:29:54.458Z,99862.41
2023-02-08T16:32:28.533Z,99862.47
2023-02-08T16:34:56.964Z,99853.47
2023-02-08T16:37:28.446Z,99855.63
2023-02-08T16:39:59.548Z,99855.94
2023-02-08T16:42:30.902Z,99857.56
2023-02-08T16:45:18.336Z,99851.03
2023-02-08T16:47:49.601Z,99805.28
2023-02-08T16:50:20.315Z,99661.28
2023-02-08T16:52:50.954Z,99630.16
2023-02-08T16:55:23.364Z,99856.50
2023-02-08T16:57:53.534Z,99856.50
2023-02-08T17:00:25.589Z,99860.72
2023-02-08T17:02:54.017Z,99864.41
2023-02-08T17:05:24.985Z,99865.22
2023-02-08T17:07:53.439Z,99871.81
2023-02-08T17:10:28.914Z,99870.75
2023-02-08T17:13:13.456Z,99871.75
2023-02-08T17:15:46.516Z,99853.63
2023-02-08T17:18:15.515Z,99835.69
2023-02-08T17:20:44.682Z,99878.88
2023-02-08T17:23:15.588Z,99876.31
2023-02-08T17:25:46.048Z,99879.06
2023-02-08T17:28:19.387Z,99864.41
2023-02-08T17:30:48.990Z,99860.03
2023-02-08T17:33:19.041Z,99851.84
2023-02-08T17:35:51.120Z,99881.44
2023-02-08T17:38:19.711Z,99772.44
2023-02-08T17:40:49.293Z,99673.31
2023-02-08T17:43:17.519Z,99765.03
2023-02-08T17:45:46.382Z,99878.97
2023-02-08T17:48:14.665Z,99722.19
2023-02-08T17:50:44.283Z,99810.31
2023-02-08T17:53:12.659Z,99875.59
2023-02-08T17:55:43.119Z,99880.59
2023-02-08T17:58:13.491Z,99876.97
2023-02-08T18:00:41.816Z,99872.06
2023-02-08T18:03:10.373Z,99866.19
2023-02-08T18:05:38.869Z,99861.59
2023-02-08T18:08:07.036Z,99872.88
2023-02-08T18:10:35.198Z,99870.19
2023-02-08T18:13:03.367Z,99870.94
2023-02-08T18:15:32.918Z,99864.91
2023-02-08T18:18:01.065Z,99886.88
2023-02-08T18:20:29.164Z,99887.09
2023-02-08T18:22:57.276Z,99868.44
2023-02-08T18:25:25.460Z,99882.75
2023-02-08T18:27:53.645Z,99887.19
2023-02-08T18:30:22.819Z,99847.94
2023-02-08T18:32:52.358Z,99895.63
2023-02-08T18:35:20.893Z,99878.44
2023-02-08T18:37:49.635Z,99877.75
2023-02-08T18:40:18.525Z,99876.66
2023-02-08T18:42:46.732Z,99838.19
2023-02-08T18:45:14.919Z,99885.00
2023-02-08T18:47:43.085Z,99902.94
2023-02-08T18:50:12.837Z,99889.28
2023-02-08T18:52:40.967Z,99874.63
2023-02-08T18:55:09.586Z,99907.94
2023-02-08T18:57:39.001Z,99882.53
2023-02-08T19:00:07.993Z,99856.69
2023-02-08T19:02:37.996Z,99866.44
2023-02-08T19:05:08.146Z,99875.19
2023-02-08T19:07:38.922Z,99868.13
2023-02-08T19:10:08.678Z,99847.84
2023-02-08T19:12:37.368Z,99871.34
2023-02-08T19:15:05.938Z,99867.97
2023-02-08T19:17:34.108Z,99849.44
2023-02-08T19:20:02.267Z,99854.53
2023-02-08T19:22:30.460Z,99874.63
2023-02-08T19:25:00.015Z,99836.97
2023-02-08T19:27:28.120Z,99875.03
2023-02-08T19:29:56.561Z,99862.72
2023-02-08T19:32:25.001Z,99878.56
2023-02-08T19:34:53.220Z,99864.09
2023-02-08T19:37:21.681Z,99873.81
2023-02-08T19:39:49.952Z,99875.59
2023-02-08T19:42:19.528Z,99860.16
2023-02-08T19:44:47.663Z,99880.34
2023-02-08T19:47:15.827Z,99881.88
2023-02-08T19:49:44.554Z,99882.66
2023-02-08T19:52:13.357Z,99880.25
2023-02-08T19:54:41.631Z,99873.34
2023-02-08T19:57:11.930Z,99858.94
2023-02-08T19:59:41.928Z,99882.84
2023-02-08T20:02:12.481Z,99872.28
2023-02-08T20:04:41.098Z,99884.03
2023-02-08T20:07:09.528Z,99885.75
2023-02-08T20:09:38.395Z,99876.00
2023-02-08T20:12:07.097Z,99815.66
2023-02-08T20:14:35.240Z,99884.53
2023-02-08T20:17:05.543Z,99868.69
2023-02-08T20:19:37.403Z,99881.16
2023-02-08T20:22:05.763Z,99884.53
2023-02-08T20:24:34.449Z,99819.03
2023-02-08T20:27:02.574Z,99886.28
2023-02-08T20:29:30.884Z,99893.22
2023-02-08T20:31:59.672Z,99893.28
2023-02-08T20:34:29.340Z,99883.72
2023-02-08T20:37:07.753Z,99865.31
2023-02-08T20:39:37.284Z,99883.97
2023-02-08T20:42:06.083Z,99888.94
2023-02-08T20:44:34.307Z,99873.84
2023-02-08T20:47:02.646Z,99887.91
2023-02-08T20:49:32.550Z,99876.97
2023-02-08T20:52:00.823Z,99872.63
2023-02-08T20:54:29.087Z,99857.41
2023-02-08T20:56:57.380Z,99896.44
2023-02-08T20:59:25.580Z,99892.25
2023-02-08T21:01:53.761Z,99847.19
2023-02-08T21:04:23.668Z,99703.63
2023-02-08T21:06:53.704Z,99894.56
2023-02-08T21:09:22.389Z,99893.63
2023-02-08T21:11:51.833Z,99875.19
2023-02-08T21:14:21.447Z,99803.25
2023-02-08T21:16:52.189Z,99878.09
2023-02-08T21:19:21.712Z,99830.53
2023-02-08T21:21:53.617Z,99896.44
2023-02-08T21:24:23.989Z,99895.00
2023-02-08T21:26:52.352Z,99877.75
2023-02-08T21:29:20.859Z,99895.47
2023-02-08T21:31:51.867Z,99875.19
2023-02-08T21:34:20.957Z,99891.13
2023-02-08T21:36:49.243Z,99892.47
2023-02-08T21:39:18.816Z,99874.53
2023-02-08T21:41:48.293Z,99892.31
2023-02-08T21:44:16.636Z,99822.47
2023-02-08T21:46:44.750Z,99877.19
2023-02-08T21:49:30.539Z,99895.84
2023-02-08T21:52:16.042Z,99887.25
2023-02-08T21:54:45.973Z,99889.03
2023-02-08T21:57:18.947Z,99859.50
2023-02-08T21:59:48.564Z,99860.84
2023-02-08T22:02:21.900Z,99860.47
2023-02-08T22:05:08.222Z,99752.91
2023-02-08T22:07:44.940Z,99878.22
2023-02-08T22:10:16.542Z,99855.13
2023-02-08T22:12:44.889Z,99882.34
2023-02-08T22:15:15.252Z,99899.47
2023-02-08T22:17:43.747Z,99887.56
2023-02-08T22:20:13.197Z,99869.75
2023-02-08T22:22:41.534Z,99889.78
2023-02-08T22:25:10.099Z,99887.22
2023-02-08T22:27:41.146Z,99895.75
2023-02-08T22:30:11.521Z,99893.03
2023-02-08T22:32:41.047Z,99866.44
2023-02-08T22:35:09.797Z,99888.66
2023-02-08T22:37:38.150Z,99840.09
2023-02-08T22:40:08.006Z,99883.81
2023-02-08T22:42:36.265Z,99882.84
2023-02-08T22:45:06.216Z,99878.59
2023-02-08T22:47:34.796Z,99880.38
2023-02-08T22:50:03.147Z,99834.44
2023-02-08T22:52:34.418Z,99887.88
2023-02-08T22:55:04.228Z,99886.88
2023-02-08T22:57:32.593Z,99889.47
2023-02-08T23:00:00.872Z,99884.16
2023-02-08T23:02:30.547Z,99870.69
2023-02-08T23:04:58.690Z,99879.91
2023-02-08T23:07:26.910Z,99883.97
2023-02-08T23:09:55.046Z,99893.56
2023-02-08T23:12:23.157Z,99882.41
2023-02-08T23:14:51.471Z,99882.56
2023-02-08T23:17:19.605Z,99871.38
2023-02-08T23:19:49.137Z,99780.31
2023-02-08T23:22:17.346Z,99869.38
2023-02-08T23:24:45.473Z,99863.19
2023-02-08T23:27:13.591Z,99866.31
2023-02-08T23:29:41.731Z,99862.50
2023-02-08T23:32:09.898Z,99867.06
2023-02-08T23:34:38.075Z,99861.69
2023-02-08T23:37:07.685Z,99835.13
2023-02-08T23:39:35.798Z,99858.06
2023-02-08T23:42:04.094Z,99855.41
2023-02-08T23:44:32.260Z,99822.94
2023-02-08T23:47:00.506Z,99849.84
2023-02-08T23:49:28.702Z,99819.41
2023-02-08T23:51:56.869Z,99838.88
2023-02-08T23:54:26.479Z,99846.34
2023-02-08T23:56:54.601Z,99844.72
2023-02-08T23:59:22.733Z,99846.25
